Time;durP1;ratioP1;P1;durP2;ratioP2;P2;SDS_P1;SDS_P2;PMS_P1;PMS_P2;Temp;Humidity;BMP_temperature;BMP_pressure;BME280_temperature;BME280_humidity;BME280_pressure;Samples;Min_cycle;Max_cycle;Signal;HPM_P1;HPM_P2
2023/11/15 00:01:38;;;;;;;10.00;6.97;;;;;;;7.24;100.00;99581.97;5035494;28;20118;-75
2023/11/15 00:04:04;;;;;;;14.80;7.27;;;;;;;7.21;100.00;99580.50;4997964;28;20092;-76
2023/11/15 00:06:29;;;;;;;11.07;6.00;;;;;;;7.25;100.00;99591.59;5013250;28;20034;-75
2023/11/15 00:08:55;;;;;;;12.25;6.63;;;;;;;7.29;100.00;99596.38;5074592;28;20023;-75
2023/11/15 00:11:20;;;;;;;13.93;6.63;;;;;;;7.27;100.00;99600.22;4980250;28;20502;-75
2023/11/15 00:13:50;;;;;;;10.18;5.85;;;;;;;7.19;100.00;99601.88;5053949;28;20030;-74
2023/11/15 00:16:16;;;;;;;12.57;6.25;;;;;;;7.16;100.00;99604.88;5022670;28;20091;-75
2023/11/15 00:18:42;;;;;;;10.10;5.18;;;;;;;7.19;100.00;99615.16;5060728;28;20020;-74
2023/11/15 00:21:08;;;;;;;8.73;4.90;;;;;;;7.30;100.00;99621.09;5010659;28;20045;-75
2023/11/15 00:23:34;;;;;;;9.77;5.40;;;;;;;7.34;100.00;99617.13;5032979;28;20040;-75
2023/11/15 00:26:00;;;;;;;11.52;6.10;;;;;;;7.34;100.00;99630.41;5060668;28;20035;-75
2023/11/15 00:28:25;;;;;;;6.43;4.07;;;;;;;7.35;100.00;99632.03;5036083;28;20034;-75
2023/11/15 00:30:51;;;;;;;6.03;4.27;;;;;;;7.35;100.00;99627.59;5026960;28;20169;-75
2023/11/15 00:33:16;;;;;;;4.17;2.73;;;;;;;7.07;100.00;99619.16;5002655;28;20118;-75
2023/11/15 00:35:41;;;;;;;4.40;2.80;;;;;;;7.21;100.00;99640.69;5016658;28;20028;-75
2023/11/15 00:38:07;;;;;;;6.10;2.53;;;;;;;7.22;100.00;99650.34;4984282;28;20042;-74
2023/11/15 00:40:34;;;;;;;4.72;2.45;;;;;;;7.19;100.00;99654.16;4983909;28;20041;-77
2023/11/15 00:42:59;;;;;;;4.70;2.33;;;;;;;7.21;100.00;99662.78;5000085;28;20506;-75
2023/11/15 00:45:25;;;;;;;3.17;2.53;;;;;;;7.22;100.00;99647.69;5032847;28;20043;-74
2023/11/15 00:47:51;;;;;;;3.00;2.30;;;;;;;7.24;100.00;99659.78;5026961;28;20103;-75
2023/11/15 00:50:17;;;;;;;5.47;2.40;;;;;;;7.30;100.00;99669.72;4975543;28;20285;-74
2023/11/15 00:52:42;;;;;;;4.00;2.40;;;;;;;7.30;100.00;99685.66;4982662;28;20025;-75
2023/11/15 00:55:08;;;;;;;4.10;2.40;;;;;;;7.31;100.00;99682.00;4983610;28;20928;-76
2023/11/15 00:57:36;;;;;;;5.60;2.45;;;;;;;7.31;100.00;99682.00;5014395;28;20038;-77
2023/11/15 01:00:07;;;;;;;2.35;1.90;;;;;;;7.34;100.00;99681.66;5013860;28;20524;-74
2023/11/15 01:02:36;;;;;;;4.43;2.45;;;;;;;7.14;100.00;99670.59;4995041;28;20049;-75
2023/11/15 01:05:01;;;;;;;2.63;1.80;;;;;;;7.27;100.00;99691.31;5018291;28;20109;-75
2023/11/15 01:07:26;;;;;;;2.87;2.13;;;;;;;7.27;100.00;99693.13;5008612;28;20179;-75
2023/11/15 01:09:53;;;;;;;3.60;2.30;;;;;;;7.30;100.00;99693.63;4995091;28;20046;-75
2023/11/15 01:12:18;;;;;;;2.65;1.90;;;;;;;7.23;100.00;99694.47;4987885;28;20030;-76
2023/11/15 01:14:44;;;;;;;2.80;2.17;;;;;;;7.22;100.00;99706.91;4983512;28;20035;-75
2023/11/15 01:17:10;;;;;;;4.70;2.13;;;;;;;7.21;100.00;99709.72;5016070;28;20037;-75
2023/11/15 01:19:35;;;;;;;;;;;;;;;7.18;100.00;99714.34;4993572;28;20036;-75
2023/11/15 01:22:01;;;;;;;3.20;2.63;;;;;;;7.16;100.00;99711.06;5046570;28;20286;-75
2023/11/15 01:24:26;;;;;;;3.03;2.20;;;;;;;7.29;100.00;99717.69;5002568;28;20041;-75
2023/11/15 01:26:52;;;;;;;6.50;2.63;;;;;;;7.35;100.00;99717.88;5019144;28;20035;-75
2023/11/15 01:29:18;;;;;;;4.80;2.38;;;;;;;7.31;100.00;99735.13;5021063;28;20902;-76
2023/11/15 01:31:43;;;;;;;2.90;2.05;;;;;;;7.28;100.00;99729.28;5032869;28;20027;-76
2023/11/15 01:34:09;;;;;;;6.43;2.17;;;;;;;7.29;100.00;99734.44;5066090;28;20514;-75
2023/11/15 01:36:35;;;;;;;2.17;1.90;;;;;;;7.18;100.00;99729.47;4997570;28;20280;-75
2023/11/15 01:39:00;;;;;;;;;;;;;;;7.23;100.00;99747.56;5046872;28;20026;-75
2023/11/15 01:41:27;;;;;;;5.38;3.05;;;;;;;7.24;100.00;99743.91;5000925;28;19918;-75
2023/11/15 01:43:52;;;;;;;5.65;2.80;;;;;;;7.25;100.00;99748.22;5042115;28;20032;-75
2023/11/15 01:46:19;;;;;;;3.37;2.43;;;;;;;7.32;100.00;99751.88;5003226;28;20049;-75
2023/11/15 01:48:45;;;;;;;4.20;2.17;;;;;;;7.24;100.00;99759.84;5031158;28;20544;-75
2023/11/15 01:51:11;;;;;;;4.03;2.55;;;;;;;7.29;100.00;99768.97;4962745;28;20026;-75
2023/11/15 01:53:38;;;;;;;4.43;2.45;;;;;;;7.24;100.00;99768.63;5032105;28;20400;-75
2023/11/15 01:56:06;;;;;;;2.88;2.50;;;;;;;7.16;100.00;99765.97;5037233;28;20111;-75
2023/11/15 01:58:32;;;;;;;2.80;2.20;;;;;;;7.15;100.00;99772.28;4984508;28;20050;-75
2023/11/15 02:00:59;;;;;;;4.30;2.60;;;;;;;7.28;100.00;99779.75;4993249;28;20031;-75
2023/11/15 02:03:25;;;;;;;4.00;2.50;;;;;;;7.14;100.00;99779.41;5024284;28;20034;-75
2023/11/15 02:05:53;;;;;;;4.43;2.73;;;;;;;7.24;100.00;99794.38;5053399;28;20486;-75
2023/11/15 02:08:19;;;;;;;2.90;1.85;;;;;;;7.26;100.00;99797.66;5025746;28;20537;-75
2023/11/15 02:10:45;;;;;;;2.50;1.80;;;;;;;7.25;100.00;99798.66;5041066;28;20042;-75
2023/11/15 02:13:39;;;;;;;2.35;1.88;;;;;;;7.09;100.00;99794.16;5065367;28;20436;-76
2023/11/15 02:16:06;;;;;;;9.80;2.70;;;;;;;7.07;100.00;99806.75;5025577;28;20037;-74
2023/11/15 02:18:32;;;;;;;4.03;2.60;;;;;;;7.06;100.00;99816.53;5016027;28;20233;-75
2023/11/15 02:20:58;;;;;;;3.80;2.10;;;;;;;7.08;100.00;99824.34;5033359;28;20034;-75
2023/11/15 02:23:28;;;;;;;4.70;2.30;;;;;;;7.06;100.00;99827.16;5023754;28;20037;-75
2023/11/15 02:25:54;;;;;;;5.20;1.90;;;;;;;7.09;100.00;99836.63;5027519;28;20045;-75
2023/11/15 02:28:19;;;;;;;3.30;2.70;;;;;;;7.12;100.00;99841.63;5028568;28;20032;-75
2023/11/15 02:30:45;;;;;;;5.82;2.17;;;;;;;7.07;100.00;99844.75;5029643;28;20033;-75
2023/11/15 02:33:10;;;;;;;3.42;2.08;;;;;;;7.15;100.00;99847.44;5037896;28;20564;-75
2023/11/15 02:35:36;;;;;;;4.10;2.37;;;;;;;7.19;100.00;99850.59;5025506;28;20044;-74
2023/11/15 02:38:01;;;;;;;4.60;2.47;;;;;;;7.03;100.00;99850.56;5028535;28;20041;-75
2023/11/15 02:40:26;;;;;;;5.70;2.50;;;;;;;7.14;100.00;99853.75;4980443;28;20055;-75
2023/11/15 02:42:52;;;;;;;3.90;2.40;;;;;;;7.18;100.00;99859.53;5059144;28;20036;-75
2023/11/15 02:45:18;;;;;;;3.80;2.60;;;;;;;7.15;100.00;99863.34;5011494;28;20038;-76
2023/11/15 02:47:43;;;;;;;;;;;;;;;7.20;100.00;99870.84;5003331;28;20063;-75
2023/11/15 02:50:09;;;;;;;5.45;2.15;;;;;;;7.14;100.00;99866.16;5030002;28;19960;-75
2023/11/15 02:52:37;;;;;;;3.42;1.92;;;;;;;7.21;100.00;99875.16;5028666;28;20062;-75
2023/11/15 02:55:03;;;;;;;5.22;2.53;;;;;;;7.08;100.00;99866.81;5058907;28;20039;-75
2023/11/15 02:57:29;;;;;;;;;;;;;;;7.17;100.00;99887.09;5011191;28;20029;-75
2023/11/15 02:59:54;;;;;;;6.07;2.65;;;;;;;7.07;100.00;99871.31;5052011;28;19914;-75
2023/11/15 03:02:20;;;;;;;4.40;2.60;;;;;;;7.14;100.00;99885.59;5007030;28;20423;-75
2023/11/15 03:04:45;;;;;;;4.97;2.57;;;;;;;7.12;100.00;99884.91;5037374;28;20084;-75
2023/11/15 03:07:12;;;;;;;5.27;3.10;;;;;;;7.14;100.00;99893.56;5016896;28;20066;-74
2023/11/15 03:09:37;;;;;;;4.38;2.33;;;;;;;7.19;100.00;99904.53;5081447;28;20484;-76
2023/11/15 03:12:03;;;;;;;4.07;2.60;;;;;;;7.13;100.00;99905.16;5019127;28;20107;-75
2023/11/15 03:14:28;;;;;;;3.03;2.05;;;;;;;7.17;100.00;99916.28;5017495;28;20418;-75
2023/11/15 03:16:54;;;;;;;4.07;2.60;;;;;;;7.04;100.00;99911.41;5019531;28;20034;-75
2023/11/15 03:19:20;;;;;;;3.60;2.55;;;;;;;7.16;100.00;99934.06;5041247;28;20054;-75
2023/11/15 03:21:45;;;;;;;5.53;3.10;;;;;;;7.12;100.00;99929.22;5078074;28;20058;-75
2023/11/15 03:24:11;;;;;;;5.23;2.90;;;;;;;7.08;100.00;99926.03;5051208;28;20034;-75
2023/11/15 03:26:36;;;;;;;8.70;3.37;;;;;;;7.12;100.00;99932.69;5073106;28;20076;-75
2023/11/15 03:29:02;;;;;;;6.47;3.47;;;;;;;7.17;100.00;99941.00;4998572;28;20726;-75
2023/11/15 03:31:27;;;;;;;6.78;3.38;;;;;;;7.18;100.00;99955.94;4972628;28;20065;-75
2023/11/15 03:33:53;;;;;;;4.53;2.93;;;;;;;7.21;100.00;99957.47;5075875;28;20027;-75
2023/11/15 03:36:18;;;;;;;6.15;2.65;;;;;;;7.20;100.00;99955.78;5043310;28;20544;-74
2023/11/15 03:38:44;;;;;;;2.87;1.97;;;;;;;7.22;100.00;99967.09;5039084;28;20024;-75
2023/11/15 03:41:12;;;;;;;4.13;2.30;;;;;;;7.07;100.00;99969.50;5011387;28;20514;-75
2023/11/15 03:43:39;;;;;;;4.65;2.58;;;;;;;7.15;100.00;99977.50;5070023;28;20844;-76
2023/11/15 03:46:05;;;;;;;3.55;2.75;;;;;;;7.15;100.00;99981.97;5038508;28;20028;-75
2023/11/15 03:48:32;;;;;;;4.60;2.58;;;;;;;7.05;100.00;99981.28;5087221;28;20111;-76
2023/11/15 03:50:57;;;;;;;4.47;2.50;;;;;;;6.90;100.00;99984.50;5022947;28;20046;-76
2023/11/15 03:53:23;;;;;;;5.85;3.00;;;;;;;6.96;100.00;99991.00;5017097;28;20027;-76
2023/11/15 03:55:48;;;;;;;5.40;3.23;;;;;;;6.98;100.00;100004.97;5059826;28;20473;-75
2023/11/15 03:58:14;;;;;;;10.05;3.75;;;;;;;6.90;100.00;100010.22;5007267;28;20515;-76
2023/11/15 04:00:39;;;;;;;7.45;3.50;;;;;;;6.83;100.00;100001.22;5053529;28;20093;-75
2023/11/15 04:03:05;;;;;;;7.00;3.80;;;;;;;6.91;100.00;100017.19;4995742;28;20589;-75
2023/11/15 04:05:31;;;;;;;6.73;4.27;;;;;;;6.81;100.00;100019.94;5063363;28;20103;-76
2023/11/15 04:07:57;;;;;;;8.70;3.95;;;;;;;6.88;100.00;100020.13;5011259;28;20030;-76
2023/11/15 04:10:23;;;;;;;6.70;3.23;;;;;;;6.74;100.00;100017.09;5035804;28;20546;-76
2023/11/15 04:12:52;;;;;;;4.50;3.40;;;;;;;6.74;100.00;100014.44;5083217;28;20052;-75
2023/11/15 04:15:17;;;;;;;4.40;2.70;;;;;;;6.57;100.00;100019.78;5031204;28;20122;-76
2023/11/15 04:17:43;;;;;;;4.50;3.22;;;;;;;6.71;100.00;100035.94;4994018;28;20119;-75
2023/11/15 04:20:10;;;;;;;4.47;2.83;;;;;;;6.63;100.00;100043.88;5006839;28;20108;-75
2023/11/15 04:22:35;;;;;;;5.75;3.20;;;;;;;6.64;100.00;100050.00;4989167;28;20027;-75
2023/11/15 04:25:01;;;;;;;6.25;3.97;;;;;;;6.64;100.00;100053.47;5007909;28;20371;-75
2023/11/15 04:27:28;;;;;;;4.97;3.22;;;;;;;6.64;100.00;100058.78;5015693;28;20531;-76
2023/11/15 04:29:54;;;;;;;5.93;3.20;;;;;;;6.69;100.00;100053.84;5063816;28;20429;-75
2023/11/15 04:32:19;;;;;;;7.30;3.50;;;;;;;6.71;100.00;100049.22;5006964;28;20131;-75
2023/11/15 04:34:45;;;;;;;5.83;3.77;;;;;;;6.64;100.00;100052.66;5052610;28;20093;-76
2023/11/15 04:37:11;;;;;;;7.13;4.10;;;;;;;6.61;100.00;100061.75;5005838;28;20065;-75
2023/11/15 04:39:36;;;;;;;9.73;4.83;;;;;;;6.58;100.00;100067.38;5045559;28;20115;-75
2023/11/15 04:42:01;;;;;;;7.33;4.27;;;;;;;6.68;100.00;100061.97;5014672;28;20567;-76
2023/11/15 04:44:27;;;;;;;6.85;4.38;;;;;;;6.61;100.00;100072.34;5016581;28;20122;-75
2023/11/15 04:46:53;;;;;;;6.40;3.97;;;;;;;6.62;100.00;100084.63;5076589;28;20028;-75
2023/11/15 04:49:18;;;;;;;7.30;4.47;;;;;;;6.52;100.00;100084.72;5089026;28;20085;-75
2023/11/15 04:51:43;;;;;;;7.25;4.32;;;;;;;6.59;100.00;100100.03;5044215;28;20093;-75
2023/11/15 04:54:10;;;;;;;8.80;5.20;;;;;;;6.52;100.00;100102.44;5058934;28;20064;-75
2023/11/15 04:56:36;;;;;;;7.28;3.75;;;;;;;6.44;100.00;100097.06;4989761;28;20486;-75
2023/11/15 04:59:02;;;;;;;7.15;4.60;;;;;;;6.44;100.00;100103.22;5014510;28;20024;-75
2023/11/15 05:01:45;;;;;;;7.65;4.13;;;;;;;6.52;100.00;100110.41;5000369;28;20426;-76
2023/11/15 05:04:29;;;;;;;8.02;3.90;;;;;;;6.49;100.00;100113.38;5070556;28;20051;-75
2023/11/15 05:07:14;;;;;;;10.98;5.10;;;;;;;6.51;100.00;100114.88;5075794;28;20070;-76
2023/11/15 05:09:58;;;;;;;10.77;5.60;;;;;;;6.54;100.00;100124.34;5007040;28;20038;-76
2023/11/15 05:12:42;;;;;;;8.68;5.43;;;;;;;6.61;100.00;100136.00;5050009;28;20054;-75
2023/11/15 05:15:28;;;;;;;12.82;5.28;;;;;;;6.58;100.00;100136.31;5068407;28;20050;-75
2023/11/15 05:18:12;;;;;;;9.55;5.32;;;;;;;6.36;100.00;100124.31;5046514;28;20872;-76
2023/11/15 05:20:56;;;;;;;11.40;5.63;;;;;;;6.33;100.00;100128.13;5038888;28;20047;-75
2023/11/15 05:23:40;;;;;;;10.52;5.45;;;;;;;6.40;100.00;100143.44;5075657;28;20402;-75
2023/11/15 05:26:25;;;;;;;12.32;6.13;;;;;;;6.41;100.00;100142.44;5002360;28;20414;-76
2023/11/15 05:28:50;;;;;;;11.68;6.57;;;;;;;6.28;100.00;100146.28;5002140;28;20034;-75
2023/11/15 05:31:16;;;;;;;10.65;5.97;;;;;;;6.31;100.00;100153.94;5001833;28;20453;-75
2023/11/15 05:33:41;;;;;;;12.23;6.85;;;;;;;6.21;100.00;100158.47;5034037;28;20752;-75
2023/11/15 05:36:07;;;;;;;11.00;6.82;;;;;;;6.33;100.00;100167.88;5081977;28;20503;-75
2023/11/15 05:38:33;;;;;;;10.75;6.07;;;;;;;6.26;100.00;100164.16;5008277;28;20030;-75
2023/11/15 05:40:58;;;;;;;16.20;6.70;;;;;;;6.29;100.00;100171.81;5048377;28;20034;-76
2023/11/15 05:43:23;;;;;;;10.53;5.57;;;;;;;6.27;100.00;100181.72;5072788;28;20794;-77
2023/11/15 05:45:49;;;;;;;15.47;6.73;;;;;;;6.30;100.00;100181.44;5080832;28;20485;-77
2023/11/15 05:48:14;;;;;;;16.27;7.43;;;;;;;6.30;100.00;100186.75;5064451;28;20048;-76
2023/11/15 05:50:39;;;;;;;13.65;7.60;;;;;;;6.28;100.00;100188.72;5053608;28;20084;-77
2023/11/15 05:53:05;;;;;;;14.68;7.18;;;;;;;6.18;100.00;100182.63;5089491;28;20146;-76
2023/11/15 05:55:31;;;;;;;15.15;7.03;;;;;;;6.15;100.00;100198.81;5064229;28;20088;-77
2023/11/15 05:57:56;;;;;;;16.08;7.68;;;;;;;6.08;100.00;100198.56;5061196;28;20840;-76
2023/11/15 06:00:22;;;;;;;14.05;7.85;;;;;;;6.14;100.00;100210.41;5068848;28;20123;-77
2023/11/15 06:02:48;;;;;;;16.98;8.73;;;;;;;6.15;100.00;100212.06;4989308;28;20043;-75
2023/11/15 06:05:15;;;;;;;14.95;7.03;;;;;;;6.13;100.00;100227.28;5087550;28;20031;-77
2023/11/15 06:07:41;;;;;;;19.90;8.52;;;;;;;6.18;100.00;100225.06;4982842;28;20060;-76
2023/11/15 06:10:08;;;;;;;18.88;9.57;;;;;;;6.14;100.00;100213.06;5079420;28;20599;-74
2023/11/15 06:12:35;;;;;;;14.40;8.20;;;;;;;6.29;100.00;100231.97;4998779;28;20076;-77
2023/11/15 06:15:01;;;;;;;16.40;8.93;;;;;;;6.26;100.00;100227.78;5088641;28;20031;-77
2023/11/15 06:17:28;;;;;;;15.63;7.25;;;;;;;6.20;100.00;100225.72;5063618;28;20479;-76
2023/11/15 06:19:54;;;;;;;14.80;7.72;;;;;;;6.14;100.00;100228.97;5021474;28;20084;-77
2023/11/15 06:22:22;;;;;;;17.08;8.50;;;;;;;6.18;100.00;100240.09;5038607;28;20020;-76
2023/11/15 06:24:48;;;;;;;15.82;8.10;;;;;;;6.18;100.00;100240.09;5070197;28;20080;-76
2023/11/15 06:27:13;;;;;;;17.08;8.45;;;;;;;6.10;100.00;100230.25;5086525;28;20031;-77
2023/11/15 06:29:39;;;;;;;16.93;9.63;;;;;;;6.12;100.00;100246.84;5064633;28;20042;-76
2023/11/15 06:32:05;;;;;;;16.67;8.32;;;;;;;6.24;100.00;100261.56;4996686;28;20125;-75
2023/11/15 06:34:30;;;;;;;16.83;8.75;;;;;;;6.23;100.00;100265.22;5056934;28;20040;-77
2023/11/15 06:36:58;;;;;;;14.70;7.35;;;;;;;6.18;100.00;100262.16;5046352;28;20031;-77
2023/11/15 06:39:24;;;;;;;17.58;8.13;;;;;;;6.08;100.00;100264.00;5029849;28;20057;-77
2023/11/15 06:41:50;;;;;;;15.55;8.75;;;;;;;6.08;100.00;100266.66;5021709;28;20028;-76
2023/11/15 06:44:16;;;;;;;17.55;8.13;;;;;;;5.95;100.00;100266.13;5002054;28;20042;-76
2023/11/15 06:46:42;;;;;;;16.58;8.60;;;;;;;6.07;100.00;100271.13;4987264;28;20035;-76
2023/11/15 06:49:10;;;;;;;14.85;7.53;;;;;;;6.06;100.00;100279.19;5002324;28;20101;-76
2023/11/15 06:51:46;;;;;;;14.30;7.43;;;;;;;6.03;100.00;100282.97;4982813;28;20138;-76
2023/11/15 06:54:11;;;;;;;15.57;7.85;;;;;;;6.07;100.00;100284.38;5063660;28;20572;-75
2023/11/15 06:56:36;;;;;;;18.27;7.73;;;;;;;6.14;100.00;100276.69;5060744;28;20147;-77
2023/11/15 06:59:02;;;;;;;14.38;7.10;;;;;;;6.13;100.00;100285.59;5078822;28;20067;-75
2023/11/15 07:01:27;;;;;;;12.77;6.85;;;;;;;6.18;100.00;100288.66;4998665;28;20058;-74
2023/11/15 07:03:54;;;;;;;13.63;7.17;;;;;;;6.10;100.00;100281.41;5060575;28;20032;-76
2023/11/15 07:06:20;;;;;;;14.50;7.13;;;;;;;6.09;100.00;100292.19;4987789;28;20561;-75
2023/11/15 07:08:45;;;;;;;;;;;;;;;6.13;100.00;100301.50;5047479;28;20130;-75
2023/11/15 07:11:12;;;;;;;13.68;7.45;;;;;;;6.05;100.00;100298.75;5029236;28;20414;-75
2023/11/15 07:13:37;;;;;;;12.73;7.70;;;;;;;6.15;100.00;100318.09;5024680;28;20053;-74
2023/11/15 07:16:06;;;;;;;15.52;8.40;;;;;;;6.08;100.00;100319.66;5067640;28;20028;-77
2023/11/15 07:18:33;;;;;;;15.40;8.27;;;;;;;6.03;100.00;100319.25;5057729;28;20042;-76
2023/11/15 07:20:59;;;;;;;19.27;9.77;;;;;;;6.01;100.00;100329.16;5068362;28;20373;-76
2023/11/15 07:23:26;;;;;;;16.77;8.10;;;;;;;6.15;100.00;100341.94;5058585;28;20024;-76
2023/11/15 07:25:52;;;;;;;16.45;9.85;;;;;;;6.03;100.00;100332.50;4993802;28;20441;-75
2023/11/15 07:28:19;;;;;;;20.23;8.85;;;;;;;6.05;100.00;100333.19;5014008;28;20069;-75
2023/11/15 07:30:44;;;;;;;13.68;7.90;;;;;;;6.00;100.00;100338.09;4999703;28;20046;-76
2023/11/15 07:33:10;;;;;;;14.87;8.17;;;;;;;6.03;100.00;100338.63;5063893;28;20106;-75
2023/11/15 07:35:36;;;;;;;16.35;9.18;;;;;;;6.11;100.00;100340.56;5014154;28;20292;-76
2023/11/15 07:38:08;;;;;;;18.52;9.05;;;;;;;6.18;100.00;100351.44;5063172;28;20378;-77
2023/11/15 07:40:37;;;;;;;18.50;9.07;;;;;;;6.21;100.00;100362.59;5041556;28;20033;-75
2023/11/15 07:43:05;;;;;;;21.60;10.50;;;;;;;6.07;100.00;100360.41;5042967;28;20059;-75
2023/11/15 07:45:35;;;;;;;20.25;9.90;;;;;;;6.16;100.00;100366.63;5043001;28;20107;-76
2023/11/15 07:48:04;;;;;;;27.05;11.43;;;;;;;6.15;100.00;100370.28;5041905;28;20503;-76
2023/11/15 07:50:31;;;;;;;20.63;10.32;;;;;;;5.93;100.00;100361.66;5041364;28;20063;-77
2023/11/15 07:52:56;;;;;;;24.98;11.88;;;;;;;5.93;100.00;100365.13;5043177;28;20037;-76
2023/11/15 07:55:22;;;;;;;19.07;10.13;;;;;;;5.99;100.00;100373.50;5035262;28;20056;-73
2023/11/15 07:57:47;;;;;;;18.67;10.27;;;;;;;5.98;100.00;100375.34;5039177;28;20025;-74
2023/11/15 08:00:13;;;;;;;18.25;10.15;;;;;;;6.20;100.00;100384.75;5039507;28;20064;-77
2023/11/15 08:02:41;;;;;;;18.55;10.52;;;;;;;6.25;100.00;100394.94;5039347;28;20055;-77
2023/11/15 08:05:07;;;;;;;25.92;11.93;;;;;;;6.20;100.00;100387.41;5042932;28;20076;-74
2023/11/15 08:07:38;;;;;;;21.88;10.05;;;;;;;6.29;100.00;100391.84;5041584;28;20037;-74
2023/11/15 08:10:05;;;;;;;18.85;10.73;;;;;;;6.42;100.00;100388.09;5021512;28;20042;-77
2023/11/15 08:12:35;;;;;;;;;;;;;;;6.46;100.00;100392.09;5040789;28;20106;-77
2023/11/15 08:15:02;;;;;;;20.05;10.00;;;;;;;6.35;100.00;100382.50;5041533;28;19917;-76
2023/11/15 08:17:27;;;;;;;17.67;9.88;;;;;;;6.52;100.00;100395.00;5024642;28;20112;-75
2023/11/15 08:19:56;;;;;;;25.57;11.87;;;;;;;6.66;100.00;100404.31;5042440;28;20116;-75
2023/11/15 08:22:22;;;;;;;16.23;9.45;;;;;;;6.28;100.00;100379.59;5037720;28;20045;-75
2023/11/15 08:24:48;;;;;;;19.38;10.18;;;;;;;6.33;100.00;100387.94;5035698;28;20037;-73
2023/11/15 08:27:14;;;;;;;20.13;9.27;;;;;;;6.33;100.00;100393.25;5038961;28;20040;-76
2023/11/15 08:29:39;;;;;;;19.17;9.93;;;;;;;6.34;100.00;100389.63;5042156;28;20033;-76
2023/11/15 08:32:06;;;;;;;20.07;9.37;;;;;;;6.34;100.00;100402.91;5041825;28;20404;-75
2023/11/15 08:34:31;;;;;;;18.23;9.98;;;;;;;6.19;100.00;100404.31;5036539;28;20047;-76
2023/11/15 08:36:58;;;;;;;14.98;8.05;;;;;;;6.22;100.00;100405.84;5039331;28;20481;-73
2023/11/15 08:39:23;;;;;;;17.58;8.88;;;;;;;6.18;100.00;100404.44;5019424;28;20029;-75
2023/11/15 08:41:49;;;;;;;16.33;8.88;;;;;;;6.17;100.00;100408.09;5037400;28;20029;-75
2023/11/15 08:44:15;;;;;;;16.42;9.43;;;;;;;6.04;100.00;100414.53;5024522;28;20037;-76
2023/11/15 08:46:45;;;;;;;15.07;9.80;;;;;;;6.13;100.00;100420.78;5024347;28;20129;-76
2023/11/15 08:49:15;;;;;;;19.17;8.75;;;;;;;6.28;100.00;100434.44;5030787;28;20155;-76
2023/11/15 08:51:45;;;;;;;16.20;8.75;;;;;;;6.42;100.00;100444.59;5026720;28;20041;-76
2023/11/15 08:54:11;;;;;;;16.38;8.95;;;;;;;6.42;100.00;100438.47;5022088;28;20030;-76
2023/11/15 08:56:40;;;;;;;16.85;10.07;;;;;;;6.54;100.00;100448.75;5028607;28;20026;-73
2023/11/15 08:59:13;;;;;;;17.88;9.40;;;;;;;6.58;100.00;100451.97;5028713;28;20117;-76
2023/11/15 09:01:41;;;;;;;15.35;8.90;;;;;;;6.30;100.00;100432.50;5025088;28;20394;-75
2023/11/15 09:04:07;;;;;;;13.40;8.02;;;;;;;6.45;100.00;100443.47;5010746;28;20080;-76
2023/11/15 09:06:32;;;;;;;13.90;8.32;;;;;;;6.61;100.00;100448.19;5010979;28;20048;-76
2023/11/15 09:08:58;;;;;;;17.37;8.70;;;;;;;6.69;100.00;100449.13;5027135;28;20037;-75
2023/11/15 09:11:23;;;;;;;14.70;8.20;;;;;;;6.70;100.00;100432.22;5028223;28;20099;-74
2023/11/15 09:13:49;;;;;;;12.32;7.20;;;;;;;6.78;100.00;100443.94;5026894;28;20052;-76
2023/11/15 09:16:16;;;;;;;14.10;7.57;;;;;;;6.97;100.00;100462.44;5022907;28;20022;-76
2023/11/15 09:18:45;;;;;;;19.50;9.40;;;;;;;6.97;100.00;100447.34;5026884;28;20300;-76
2023/11/15 09:21:11;;;;;;;14.45;7.60;;;;;;;6.95;100.00;100440.50;5010206;28;20073;-76
2023/11/15 09:23:38;;;;;;;12.63;7.18;;;;;;;6.97;100.00;100434.06;5010270;28;20856;-76
2023/11/15 09:26:04;;;;;;;12.73;7.25;;;;;;;6.84;100.00;100430.09;5028185;28;20060;-76
2023/11/15 09:28:30;;;;;;;12.02;7.22;;;;;;;6.87;100.00;100437.75;5028226;28;20131;-76
2023/11/15 09:30:56;;;;;;;;;;;;;;;6.97;100.00;100446.50;5010521;28;20033;-76
2023/11/15 09:33:21;;;;;;;12.02;7.55;;;;;;;6.88;100.00;100442.06;5027733;28;19920;-76
2023/11/15 09:35:47;;;;;;;12.50;7.60;;;;;;;6.97;100.00;100451.81;5027845;28;20033;-76
2023/11/15 09:38:14;;;;;;;10.80;6.85;;;;;;;7.06;100.00;100447.44;5028061;28;20124;-76
2023/11/15 09:40:41;;;;;;;10.90;7.28;;;;;;;6.94;100.00;100433.53;5026460;28;20400;-76
2023/11/15 09:43:07;;;;;;;13.38;6.22;;;;;;;7.09;100.00;100442.66;5028017;28;20064;-77
2023/11/15 09:45:41;;;;;;;13.02;7.28;;;;;;;7.22;100.00;100449.47;5027718;28;20037;-76
2023/11/15 09:48:09;;;;;;;13.10;6.68;;;;;;;7.08;100.00;100430.38;5027718;28;20382;-75
2023/11/15 09:50:37;;;;;;;12.23;7.13;;;;;;;7.03;100.00;100430.00;5020908;28;20601;-76
2023/11/15 09:53:05;;;;;;;11.57;8.05;;;;;;;7.09;100.00;100442.66;5021748;28;20108;-76
2023/11/15 09:55:31;;;;;;;13.30;7.60;;;;;;;7.30;100.00;100455.69;5027507;28;20025;-74
2023/11/15 09:57:56;;;;;;;;;;;;;;;7.38;100.00;100449.66;5028099;28;20479;-73
2023/11/15 10:00:23;;;;;;;19.88;7.90;;;;;;;7.61;100.00;100464.19;5024996;28;19923;-74
2023/11/15 10:02:50;;;;;;;;;;;;;;;7.91;100.00;100469.28;5027466;28;20435;-76
2023/11/15 10:05:31;;;;;;;10.32;5.88;;;;;;;8.05;100.00;100471.41;5027517;28;19967;-76
2023/11/15 10:08:11;;;;;;;10.45;6.65;;;;;;;7.91;100.00;100438.22;5019497;28;20026;-74
2023/11/15 10:10:43;;;;;;;10.40;5.95;;;;;;;8.04;100.00;100454.63;5009402;28;20545;-75
2023/11/15 10:13:21;;;;;;;10.25;5.80;;;;;;;7.95;100.00;100436.94;5026846;28;20044;-76
2023/11/15 10:15:46;;;;;;;8.25;5.25;;;;;;;7.94;100.00;100427.31;5025872;28;20038;-77
2023/11/15 10:18:28;;;;;;;9.13;5.22;;;;;;;7.64;100.00;100396.63;5027441;28;20043;-75
2023/11/15 10:21:08;;;;;;;12.73;7.20;;;;;;;7.49;100.00;100391.03;5026330;28;20372;-77
2023/11/15 10:23:34;;;;;;;11.65;5.43;;;;;;;7.52;100.00;100411.97;5026483;28;20040;-76
2023/11/15 10:26:03;;;;;;;9.98;6.05;;;;;;;7.58;100.00;100414.00;5027010;28;20021;-77
2023/11/15 10:28:32;;;;;;;11.18;6.35;;;;;;;7.69;100.00;100418.25;5025718;28;20041;-76
2023/11/15 10:31:04;;;;;;;8.35;4.93;;;;;;;7.82;100.00;100413.41;5025474;28;20422;-76
2023/11/15 10:33:32;;;;;;;7.82;4.78;;;;;;;7.71;100.00;100410.16;5026853;28;20492;-76
2023/11/15 10:36:14;;;;;;;8.82;5.38;;;;;;;7.87;100.00;100441.34;5016989;28;20128;-73
2023/11/15 10:38:44;;;;;;;7.63;4.72;;;;;;;7.98;100.00;100438.44;5018335;28;20045;-76
2023/11/15 10:41:16;;;;;;;9.30;4.63;;;;;;;7.67;100.00;100391.00;5023719;28;20087;-75
2023/11/15 10:43:42;;;;;;;6.65;4.95;;;;;;;7.85;100.00;100417.56;5024138;28;20726;-74
2023/11/15 10:46:12;;;;;;;6.53;4.70;;;;;;;7.82;100.00;100412.56;5026871;28;20033;-76
2023/11/15 10:48:42;;;;;;;7.13;5.07;;;;;;;7.91;100.00;100429.41;5026620;28;20037;-76
2023/11/15 10:51:14;;;;;;;10.73;5.78;;;;;;;7.93;100.00;100414.16;5025321;28;20120;-76
2023/11/15 10:53:43;;;;;;;7.47;4.18;;;;;;;7.89;100.00;100412.78;5008625;28;20041;-76
2023/11/15 10:56:14;;;;;;;8.35;5.15;;;;;;;7.83;100.00;100398.28;5026302;28;20036;-75
2023/11/15 10:58:41;;;;;;;5.50;3.80;;;;;;;7.65;100.00;100381.50;5026184;28;20041;-76
2023/11/15 11:01:09;;;;;;;6.90;5.10;;;;;;;7.76;100.00;100391.91;5024630;28;20060;-75
2023/11/15 11:03:39;;;;;;;8.32;4.43;;;;;;;7.73;100.00;100410.84;5025699;28;20483;-77
2023/11/15 11:06:15;;;;;;;9.32;4.55;;;;;;;7.68;100.00;100411.28;5008509;28;20064;-76
2023/11/15 11:08:48;;;;;;;;;;;;;;;7.86;100.00;100450.31;5008553;28;20034;-76
2023/11/15 11:11:22;;;;;;;6.18;4.65;;;;;;;7.96;100.00;100451.91;5024389;28;19916;-74
2023/11/15 11:14:15;;;;;;;6.75;4.53;;;;;;;7.82;100.00;100417.91;5024507;28;20037;-74
2023/11/15 11:16:42;;;;;;;9.88;4.63;;;;;;;7.61;100.00;100397.78;5024517;28;20041;-75
2023/11/15 11:19:11;;;;;;;;;;;;;;;7.83;100.00;100438.16;5008660;28;20065;-72
2023/11/15 11:22:03;;;;;;;8.70;5.00;;;;;;;7.93;100.00;100433.59;5025687;28;20733;-73
2023/11/15 11:24:42;;;;;;;5.20;3.42;;;;;;;7.83;100.00;100417.72;5022032;28;20033;-75
2023/11/15 11:27:14;;;;;;;6.80;4.00;;;;;;;7.81;100.00;100406.41;5017971;28;20044;-75
2023/11/15 11:29:48;;;;;;;9.55;4.32;;;;;;;7.75;100.00;100392.88;5025546;28;20033;-73